sensor_id;sensor_type;location;lat;lon;timestamp;P1;durP1;ratioP1;P2;durP2;ratioP2
11088;SDS011;5598;48.648;8.908;2022-12-07T00:01:20;11.00;;;6.70;;
11088;SDS011;5598;48.648;8.908;2022-12-07T00:03:49;0.43;;;0.43;;
11088;SDS011;5598;48.648;8.908;2022-12-07T00:06:17;0.70;;;0.70;;
11088;SDS011;5598;48.648;8.908;2022-12-07T00:08:45;9.90;;;5.20;;
11088;SDS011;5598;48.648;8.908;2022-12-07T00:11:14;4.73;;;3.57;;
11088;SDS011;5598;48.648;8.908;2022-12-07T00:13:43;7.97;;;5.37;;
11088;SDS011;5598;48.648;8.908;2022-12-07T00:16:10;5.73;;;3.40;;
11088;SDS011;5598;48.648;8.908;2022-12-07T00:18:38;9.77;;;5.03;;
11088;SDS011;5598;48.648;8.908;2022-12-07T00:21:06;1.07;;;0.60;;
11088;SDS011;5598;48.648;8.908;2022-12-07T00:23:35;8.07;;;3.93;;
11088;SDS011;5598;48.648;8.908;2022-12-07T00:26:05;1.97;;;1.13;;
11088;SDS011;5598;48.648;8.908;2022-12-07T00:28:34;4.80;;;2.60;;
11088;SDS011;5598;48.648;8.908;2022-12-07T00:31:02;2.23;;;0.43;;
11088;SDS011;5598;48.648;8.908;2022-12-07T00:33:30;6.47;;;5.07;;
11088;SDS011;5598;48.648;8.908;2022-12-07T00:35:57;2.83;;;2.43;;
11088;SDS011;5598;48.648;8.908;2022-12-07T00:38:26;1.13;;;0.87;;
11088;SDS011;5598;48.648;8.908;2022-12-07T00:40:55;2.43;;;1.87;;
11088;SDS011;5598;48.648;8.908;2022-12-07T00:43:22;0.40;;;0.33;;
11088;SDS011;5598;48.648;8.908;2022-12-07T00:45:50;0.77;;;0.63;;
11088;SDS011;5598;48.648;8.908;2022-12-07T00:48:17;2.30;;;1.70;;
11088;SDS011;5598;48.648;8.908;2022-12-07T00:50:44;0.87;;;0.87;;
11088;SDS011;5598;48.648;8.908;2022-12-07T00:53:11;2.77;;;2.13;;
11088;SDS011;5598;48.648;8.908;2022-12-07T00:55:38;0.00;;;0.00;;
11088;SDS011;5598;48.648;8.908;2022-12-07T00:58:04;2.17;;;1.13;;
11088;SDS011;5598;48.648;8.908;2022-12-07T01:00:31;0.40;;;0.40;;
11088;SDS011;5598;48.648;8.908;2022-12-07T01:03:02;0.43;;;0.43;;
11088;SDS011;5598;48.648;8.908;2022-12-07T01:05:29;2.87;;;2.67;;
11088;SDS011;5598;48.648;8.908;2022-12-07T01:07:56;0.00;;;0.00;;
11088;SDS011;5598;48.648;8.908;2022-12-07T01:10:23;0.23;;;0.17;;
11088;SDS011;5598;48.648;8.908;2022-12-07T01:12:49;0.40;;;0.40;;
11088;SDS011;5598;48.648;8.908;2022-12-07T01:15:16;3.30;;;1.23;;
11088;SDS011;5598;48.648;8.908;2022-12-07T01:17:43;4.67;;;2.40;;
11088;SDS011;5598;48.648;8.908;2022-12-07T01:20:12;1.60;;;1.23;;
11088;SDS011;5598;48.648;8.908;2022-12-07T01:22:41;1.70;;;1.27;;
11088;SDS011;5598;48.648;8.908;2022-12-07T01:25:09;4.67;;;2.90;;
11088;SDS011;5598;48.648;8.908;2022-12-07T01:27:37;0.67;;;0.67;;
11088;SDS011;5598;48.648;8.908;2022-12-07T01:30:04;4.37;;;2.73;;
11088;SDS011;5598;48.648;8.908;2022-12-07T01:32:33;0.43;;;0.43;;
11088;SDS011;5598;48.648;8.908;2022-12-07T01:35:00;3.60;;;2.47;;
11088;SDS011;5598;48.648;8.908;2022-12-07T01:37:28;0.13;;;0.13;;
11088;SDS011;5598;48.648;8.908;2022-12-07T01:40:00;6.97;;;3.93;;
11088;SDS011;5598;48.648;8.908;2022-12-07T01:42:27;0.97;;;0.87;;
11088;SDS011;5598;48.648;8.908;2022-12-07T01:47:55;6.07;;;3.57;;
11088;SDS011;5598;48.648;8.908;2022-12-07T01:50:24;6.13;;;4.17;;
11088;SDS011;5598;48.648;8.908;2022-12-07T01:52:54;0.40;;;0.40;;
11088;SDS011;5598;48.648;8.908;2022-12-07T01:55:23;1.07;;;1.07;;
11088;SDS011;5598;48.648;8.908;2022-12-07T01:57:50;2.13;;;1.17;;
11088;SDS011;5598;48.648;8.908;2022-12-07T02:00:19;2.43;;;0.97;;
11088;SDS011;5598;48.648;8.908;2022-12-07T02:02:47;4.80;;;2.10;;
11088;SDS011;5598;48.648;8.908;2022-12-07T02:05:17;0.83;;;0.40;;
11088;SDS011;5598;48.648;8.908;2022-12-07T02:07:46;0.17;;;0.17;;
11088;SDS011;5598;48.648;8.908;2022-12-07T02:10:16;0.00;;;0.00;;
11088;SDS011;5598;48.648;8.908;2022-12-07T02:12:45;0.00;;;0.00;;
11088;SDS011;5598;48.648;8.908;2022-12-07T02:15:15;0.00;;;0.00;;
11088;SDS011;5598;48.648;8.908;2022-12-07T02:17:44;0.10;;;0.10;;
11088;SDS011;5598;48.648;8.908;2022-12-07T02:20:21;0.53;;;0.53;;
11088;SDS011;5598;48.648;8.908;2022-12-07T02:26:02;0.00;;;0.00;;
11088;SDS011;5598;48.648;8.908;2022-12-07T02:28:51;1.40;;;0.50;;
11088;SDS011;5598;48.648;8.908;2022-12-07T02:31:32;0.00;;;0.00;;
11088;SDS011;5598;48.648;8.908;2022-12-07T02:34:01;0.37;;;0.37;;
11088;SDS011;5598;48.648;8.908;2022-12-07T02:36:35;0.87;;;0.30;;
11088;SDS011;5598;48.648;8.908;2022-12-07T02:39:09;4.67;;;2.63;;
11088;SDS011;5598;48.648;8.908;2022-12-07T02:41:42;1.53;;;0.97;;
11088;SDS011;5598;48.648;8.908;2022-12-07T02:44:15;4.97;;;3.27;;
11088;SDS011;5598;48.648;8.908;2022-12-07T02:46:47;0.40;;;0.40;;
11088;SDS011;5598;48.648;8.908;2022-12-07T02:49:19;1.00;;;1.00;;
11088;SDS011;5598;48.648;8.908;2022-12-07T02:51:48;2.10;;;1.70;;
11088;SDS011;5598;48.648;8.908;2022-12-07T02:54:15;0.17;;;0.17;;
11088;SDS011;5598;48.648;8.908;2022-12-07T02:56:45;2.63;;;0.93;;
11088;SDS011;5598;48.648;8.908;2022-12-07T02:59:20;0.10;;;0.10;;
11088;SDS011;5598;48.648;8.908;2022-12-07T03:01:55;0.00;;;0.00;;
11088;SDS011;5598;48.648;8.908;2022-12-07T03:04:37;3.67;;;2.00;;
11088;SDS011;5598;48.648;8.908;2022-12-07T03:07:15;0.00;;;0.00;;
11088;SDS011;5598;48.648;8.908;2022-12-07T03:09:52;0.00;;;0.00;;
11088;SDS011;5598;48.648;8.908;2022-12-07T03:12:28;0.73;;;0.50;;
11088;SDS011;5598;48.648;8.908;2022-12-07T03:15:02;0.20;;;0.17;;
11088;SDS011;5598;48.648;8.908;2022-12-07T03:17:32;3.60;;;2.37;;
11088;SDS011;5598;48.648;8.908;2022-12-07T03:20:04;1.63;;;1.10;;
11088;SDS011;5598;48.648;8.908;2022-12-07T03:22:34;0.30;;;0.30;;
11088;SDS011;5598;48.648;8.908;2022-12-07T03:25:05;0.00;;;0.00;;
11088;SDS011;5598;48.648;8.908;2022-12-07T03:27:37;0.00;;;0.00;;
11088;SDS011;5598;48.648;8.908;2022-12-07T03:30:09;4.87;;;2.67;;
11088;SDS011;5598;48.648;8.908;2022-12-07T03:32:39;0.10;;;0.10;;
11088;SDS011;5598;48.648;8.908;2022-12-07T03:35:11;0.00;;;0.00;;
11088;SDS011;5598;48.648;8.908;2022-12-07T03:37:44;2.67;;;1.87;;
11088;SDS011;5598;48.648;8.908;2022-12-07T03:40:16;4.93;;;3.37;;
11088;SDS011;5598;48.648;8.908;2022-12-07T03:42:48;4.03;;;2.87;;
11088;SDS011;5598;48.648;8.908;2022-12-07T03:45:18;8.83;;;5.90;;
11088;SDS011;5598;48.648;8.908;2022-12-07T03:47:48;2.53;;;0.60;;
11088;SDS011;5598;48.648;8.908;2022-12-07T03:50:21;7.47;;;2.70;;
11088;SDS011;5598;48.648;8.908;2022-12-07T03:52:54;1.77;;;0.97;;
11088;SDS011;5598;48.648;8.908;2022-12-07T03:55:26;4.90;;;3.27;;
11088;SDS011;5598;48.648;8.908;2022-12-07T03:57:56;3.13;;;1.13;;
11088;SDS011;5598;48.648;8.908;2022-12-07T04:00:29;0.00;;;0.00;;
11088;SDS011;5598;48.648;8.908;2022-12-07T04:02:56;0.30;;;0.30;;
11088;SDS011;5598;48.648;8.908;2022-12-07T04:05:23;0.20;;;0.20;;
11088;SDS011;5598;48.648;8.908;2022-12-07T04:07:50;0.00;;;0.00;;
11088;SDS011;5598;48.648;8.908;2022-12-07T04:10:17;4.30;;;1.87;;
11088;SDS011;5598;48.648;8.908;2022-12-07T04:12:44;1.97;;;1.47;;
11088;SDS011;5598;48.648;8.908;2022-12-07T04:15:11;0.00;;;0.00;;
11088;SDS011;5598;48.648;8.908;2022-12-07T04:17:39;0.60;;;0.50;;
11088;SDS011;5598;48.648;8.908;2022-12-07T04:20:07;6.40;;;2.43;;
11088;SDS011;5598;48.648;8.908;2022-12-07T04:22:35;10.87;;;5.30;;
11088;SDS011;5598;48.648;8.908;2022-12-07T04:25:02;10.57;;;5.50;;
11088;SDS011;5598;48.648;8.908;2022-12-07T04:27:29;1.60;;;0.63;;
11088;SDS011;5598;48.648;8.908;2022-12-07T04:29:56;5.07;;;3.40;;
11088;SDS011;5598;48.648;8.908;2022-12-07T04:32:23;13.20;;;8.43;;
11088;SDS011;5598;48.648;8.908;2022-12-07T04:34:51;1.57;;;1.27;;
11088;SDS011;5598;48.648;8.908;2022-12-07T04:37:18;2.37;;;1.77;;
11088;SDS011;5598;48.648;8.908;2022-12-07T04:39:44;9.33;;;5.33;;
11088;SDS011;5598;48.648;8.908;2022-12-07T04:42:11;11.50;;;6.90;;
11088;SDS011;5598;48.648;8.908;2022-12-07T04:44:38;6.23;;;3.47;;
11088;SDS011;5598;48.648;8.908;2022-12-07T04:47:05;7.27;;;3.90;;
11088;SDS011;5598;48.648;8.908;2022-12-07T04:49:32;11.83;;;7.37;;
11088;SDS011;5598;48.648;8.908;2022-12-07T04:52:00;9.27;;;5.07;;
11088;SDS011;5598;48.648;8.908;2022-12-07T04:54:27;2.20;;;2.10;;
11088;SDS011;5598;48.648;8.908;2022-12-07T04:56:54;7.17;;;4.27;;
11088;SDS011;5598;48.648;8.908;2022-12-07T04:59:21;14.43;;;8.43;;
11088;SDS011;5598;48.648;8.908;2022-12-07T05:01:47;0.43;;;0.43;;
11088;SDS011;5598;48.648;8.908;2022-12-07T05:04:14;5.13;;;2.77;;
11088;SDS011;5598;48.648;8.908;2022-12-07T05:06:42;2.07;;;0.93;;
11088;SDS011;5598;48.648;8.908;2022-12-07T05:09:11;9.47;;;4.87;;
11088;SDS011;5598;48.648;8.908;2022-12-07T05:11:38;1.00;;;0.20;;
11088;SDS011;5598;48.648;8.908;2022-12-07T05:14:05;1.40;;;1.30;;
11088;SDS011;5598;48.648;8.908;2022-12-07T05:16:35;7.03;;;4.40;;
11088;SDS011;5598;48.648;8.908;2022-12-07T05:19:02;3.67;;;2.53;;
11088;SDS011;5598;48.648;8.908;2022-12-07T05:21:28;2.80;;;1.70;;
11088;SDS011;5598;48.648;8.908;2022-12-07T05:23:55;4.97;;;1.17;;
11088;SDS011;5598;48.648;8.908;2022-12-07T05:26:23;0.63;;;0.47;;
11088;SDS011;5598;48.648;8.908;2022-12-07T05:28:51;3.77;;;1.57;;
11088;SDS011;5598;48.648;8.908;2022-12-07T05:31:18;4.63;;;2.80;;
11088;SDS011;5598;48.648;8.908;2022-12-07T05:33:45;0.47;;;0.47;;
11088;SDS011;5598;48.648;8.908;2022-12-07T05:36:12;2.43;;;1.83;;
11088;SDS011;5598;48.648;8.908;2022-12-07T05:38:39;2.77;;;1.63;;
11088;SDS011;5598;48.648;8.908;2022-12-07T05:41:06;4.23;;;3.27;;
11088;SDS011;5598;48.648;8.908;2022-12-07T05:43:55;8.23;;;5.57;;
11088;SDS011;5598;48.648;8.908;2022-12-07T05:46:21;7.90;;;4.00;;
11088;SDS011;5598;48.648;8.908;2022-12-07T05:48:48;11.33;;;7.20;;
11088;SDS011;5598;48.648;8.908;2022-12-07T05:51:15;3.00;;;2.03;;
11088;SDS011;5598;48.648;8.908;2022-12-07T05:53:42;5.23;;;2.57;;
11088;SDS011;5598;48.648;8.908;2022-12-07T05:56:09;18.77;;;10.20;;
11088;SDS011;5598;48.648;8.908;2022-12-07T05:58:36;24.07;;;12.67;;
11088;SDS011;5598;48.648;8.908;2022-12-07T06:01:21;22.93;;;13.10;;
11088;SDS011;5598;48.648;8.908;2022-12-07T06:03:48;27.30;;;14.60;;
11088;SDS011;5598;48.648;8.908;2022-12-07T06:06:14;13.97;;;6.27;;
11088;SDS011;5598;48.648;8.908;2022-12-07T06:08:41;15.73;;;7.37;;
11088;SDS011;5598;48.648;8.908;2022-12-07T06:11:08;15.63;;;9.33;;
11088;SDS011;5598;48.648;8.908;2022-12-07T06:13:53;13.43;;;7.87;;
11088;SDS011;5598;48.648;8.908;2022-12-07T06:16:21;27.57;;;15.30;;
11088;SDS011;5598;48.648;8.908;2022-12-07T06:18:48;30.53;;;15.10;;
11088;SDS011;5598;48.648;8.908;2022-12-07T06:21:14;22.47;;;11.83;;
11088;SDS011;5598;48.648;8.908;2022-12-07T06:23:41;21.10;;;10.13;;
11088;SDS011;5598;48.648;8.908;2022-12-07T06:26:08;0.70;;;0.70;;
11088;SDS011;5598;48.648;8.908;2022-12-07T06:28:35;23.70;;;10.63;;
11088;SDS011;5598;48.648;8.908;2022-12-07T06:31:01;9.90;;;5.10;;
11088;SDS011;5598;48.648;8.908;2022-12-07T06:33:30;8.40;;;4.17;;
11088;SDS011;5598;48.648;8.908;2022-12-07T06:35:56;13.43;;;6.13;;
11088;SDS011;5598;48.648;8.908;2022-12-07T06:38:23;15.20;;;6.50;;
11088;SDS011;5598;48.648;8.908;2022-12-07T06:40:50;43.40;;;19.03;;
11088;SDS011;5598;48.648;8.908;2022-12-07T06:43:17;42.17;;;15.93;;
11088;SDS011;5598;48.648;8.908;2022-12-07T06:45:44;30.53;;;11.73;;
11088;SDS011;5598;48.648;8.908;2022-12-07T06:48:11;45.93;;;11.70;;
11088;SDS011;5598;48.648;8.908;2022-12-07T06:50:39;18.23;;;6.83;;
11088;SDS011;5598;48.648;8.908;2022-12-07T06:53:05;42.07;;;11.17;;
11088;SDS011;5598;48.648;8.908;2022-12-07T06:55:32;34.67;;;11.57;;
11088;SDS011;5598;48.648;8.908;2022-12-07T06:57:59;70.77;;;20.57;;
11088;SDS011;5598;48.648;8.908;2022-12-07T07:00:26;26.93;;;9.73;;
11088;SDS011;5598;48.648;8.908;2022-12-07T07:02:53;5.57;;;3.20;;
11088;SDS011;5598;48.648;8.908;2022-12-07T07:05:20;23.57;;;9.83;;
11088;SDS011;5598;48.648;8.908;2022-12-07T07:07:48;1.57;;;1.47;;
11088;SDS011;5598;48.648;8.908;2022-12-07T07:10:15;0.00;;;0.00;;
11088;SDS011;5598;48.648;8.908;2022-12-07T07:12:42;9.73;;;4.13;;
11088;SDS011;5598;48.648;8.908;2022-12-07T07:15:09;23.93;;;10.10;;
11088;SDS011;5598;48.648;8.908;2022-12-07T07:17:36;9.37;;;5.57;;
11088;SDS011;5598;48.648;8.908;2022-12-07T07:20:03;1.90;;;1.80;;
11088;SDS011;5598;48.648;8.908;2022-12-07T07:22:31;22.13;;;7.23;;
11088;SDS011;5598;48.648;8.908;2022-12-07T07:24:59;40.67;;;16.93;;
11088;SDS011;5598;48.648;8.908;2022-12-07T07:27:26;10.37;;;5.60;;
11088;SDS011;5598;48.648;8.908;2022-12-07T07:29:53;16.63;;;6.27;;
11088;SDS011;5598;48.648;8.908;2022-12-07T07:32:20;7.77;;;4.77;;
11088;SDS011;5598;48.648;8.908;2022-12-07T07:34:47;0.23;;;0.23;;
11088;SDS011;5598;48.648;8.908;2022-12-07T07:37:14;15.87;;;7.00;;
11088;SDS011;5598;48.648;8.908;2022-12-07T07:39:40;8.63;;;3.67;;
11088;SDS011;5598;48.648;8.908;2022-12-07T07:42:09;16.40;;;8.23;;
11088;SDS011;5598;48.648;8.908;2022-12-07T07:44:35;16.43;;;10.27;;
11088;SDS011;5598;48.648;8.908;2022-12-07T07:47:02;3.80;;;2.77;;
11088;SDS011;5598;48.648;8.908;2022-12-07T07:49:29;9.07;;;4.73;;
11088;SDS011;5598;48.648;8.908;2022-12-07T07:51:56;15.37;;;9.23;;
11088;SDS011;5598;48.648;8.908;2022-12-07T07:54:22;6.47;;;3.60;;
11088;SDS011;5598;48.648;8.908;2022-12-07T07:56:49;6.63;;;3.27;;
11088;SDS011;5598;48.648;8.908;2022-12-07T07:59:17;12.83;;;8.67;;
11088;SDS011;5598;48.648;8.908;2022-12-07T08:01:44;6.53;;;4.10;;
11088;SDS011;5598;48.648;8.908;2022-12-07T08:04:11;9.53;;;6.17;;
11088;SDS011;5598;48.648;8.908;2022-12-07T08:06:38;4.60;;;2.97;;
11088;SDS011;5598;48.648;8.908;2022-12-07T08:09:07;10.77;;;6.10;;
11088;SDS011;5598;48.648;8.908;2022-12-07T08:11:34;6.80;;;4.37;;
11088;SDS011;5598;48.648;8.908;2022-12-07T08:14:01;2.43;;;2.23;;
11088;SDS011;5598;48.648;8.908;2022-12-07T08:16:29;0.90;;;0.90;;
11088;SDS011;5598;48.648;8.908;2022-12-07T08:18:56;6.57;;;3.90;;
11088;SDS011;5598;48.648;8.908;2022-12-07T08:21:22;5.90;;;3.63;;
11088;SDS011;5598;48.648;8.908;2022-12-07T08:23:49;3.80;;;2.50;;
11088;SDS011;5598;48.648;8.908;2022-12-07T08:26:16;3.00;;;2.37;;
11088;SDS011;5598;48.648;8.908;2022-12-07T08:28:43;6.43;;;3.93;;
11088;SDS011;5598;48.648;8.908;2022-12-07T08:31:11;10.93;;;7.47;;
11088;SDS011;5598;48.648;8.908;2022-12-07T08:33:41;4.93;;;2.83;;
11088;SDS011;5598;48.648;8.908;2022-12-07T08:36:09;5.27;;;2.70;;
11088;SDS011;5598;48.648;8.908;2022-12-07T08:38:38;6.37;;;2.90;;
11088;SDS011;5598;48.648;8.908;2022-12-07T08:41:06;6.40;;;3.20;;
11088;SDS011;5598;48.648;8.908;2022-12-07T08:43:34;1.73;;;1.57;;
11088;SDS011;5598;48.648;8.908;2022-12-07T08:46:04;0.17;;;0.17;;
11088;SDS011;5598;48.648;8.908;2022-12-07T08:48:35;7.73;;;3.67;;
11088;SDS011;5598;48.648;8.908;2022-12-07T08:51:06;2.97;;;2.00;;
11088;SDS011;5598;48.648;8.908;2022-12-07T08:53:33;5.43;;;2.43;;
11088;SDS011;5598;48.648;8.908;2022-12-07T08:56:01;2.20;;;2.00;;
11088;SDS011;5598;48.648;8.908;2022-12-07T08:58:29;7.43;;;4.53;;
11088;SDS011;5598;48.648;8.908;2022-12-07T09:00:56;7.40;;;5.17;;
11088;SDS011;5598;48.648;8.908;2022-12-07T09:03:23;9.50;;;4.80;;
11088;SDS011;5598;48.648;8.908;2022-12-07T09:05:49;3.43;;;2.40;;
11088;SDS011;5598;48.648;8.908;2022-12-07T09:08:18;5.73;;;3.07;;
11088;SDS011;5598;48.648;8.908;2022-12-07T09:10:45;0.93;;;0.83;;
11088;SDS011;5598;48.648;8.908;2022-12-07T09:13:12;1.90;;;0.97;;
11088;SDS011;5598;48.648;8.908;2022-12-07T09:15:39;0.63;;;0.63;;
11088;SDS011;5598;48.648;8.908;2022-12-07T09:18:06;1.17;;;1.07;;
11088;SDS011;5598;48.648;8.908;2022-12-07T09:20:33;0.10;;;0.10;;
11088;SDS011;5598;48.648;8.908;2022-12-07T09:23:00;0.00;;;0.00;;
11088;SDS011;5598;48.648;8.908;2022-12-07T09:25:28;0.00;;;0.00;;
11088;SDS011;5598;48.648;8.908;2022-12-07T09:27:55;0.00;;;0.00;;
11088;SDS011;5598;48.648;8.908;2022-12-07T09:30:22;0.00;;;0.00;;
11088;SDS011;5598;48.648;8.908;2022-12-07T09:32:49;0.83;;;0.63;;
11088;SDS011;5598;48.648;8.908;2022-12-07T09:35:18;3.53;;;1.80;;
11088;SDS011;5598;48.648;8.908;2022-12-07T09:37:45;0.27;;;0.27;;
11088;SDS011;5598;48.648;8.908;2022-12-07T09:40:12;2.30;;;1.33;;
11088;SDS011;5598;48.648;8.908;2022-12-07T09:42:43;0.87;;;0.87;;
11088;SDS011;5598;48.648;8.908;2022-12-07T09:45:12;0.90;;;0.50;;
11088;SDS011;5598;48.648;8.908;2022-12-07T09:47:42;2.60;;;1.77;;
11088;SDS011;5598;48.648;8.908;2022-12-07T09:50:12;1.73;;;1.57;;
11088;SDS011;5598;48.648;8.908;2022-12-07T09:52:40;1.63;;;1.17;;
11088;SDS011;5598;48.648;8.908;2022-12-07T09:55:10;1.87;;;1.57;;
11088;SDS011;5598;48.648;8.908;2022-12-07T09:57:38;1.53;;;1.43;;
11088;SDS011;5598;48.648;8.908;2022-12-07T10:00:11;4.00;;;2.30;;
11088;SDS011;5598;48.648;8.908;2022-12-07T10:02:39;6.30;;;3.40;;
11088;SDS011;5598;48.648;8.908;2022-12-07T10:05:10;1.10;;;0.67;;
11088;SDS011;5598;48.648;8.908;2022-12-07T10:07:40;4.60;;;1.93;;
11088;SDS011;5598;48.648;8.908;2022-12-07T10:10:12;3.17;;;2.17;;
11088;SDS011;5598;48.648;8.908;2022-12-07T10:12:52;3.50;;;1.30;;
11088;SDS011;5598;48.648;8.908;2022-12-07T10:15:39;4.13;;;2.13;;
11088;SDS011;5598;48.648;8.908;2022-12-07T10:18:16;4.17;;;2.67;;
11088;SDS011;5598;48.648;8.908;2022-12-07T10:20:59;4.03;;;2.53;;
11088;SDS011;5598;48.648;8.908;2022-12-07T10:23:28;2.27;;;2.07;;
11088;SDS011;5598;48.648;8.908;2022-12-07T10:25:54;6.63;;;4.53;;
11088;SDS011;5598;48.648;8.908;2022-12-07T10:28:21;1.30;;;1.23;;
11088;SDS011;5598;48.648;8.908;2022-12-07T10:30:51;1.37;;;1.23;;
11088;SDS011;5598;48.648;8.908;2022-12-07T10:33:32;1.70;;;1.03;;
11088;SDS011;5598;48.648;8.908;2022-12-07T10:36:01;1.17;;;0.97;;
11088;SDS011;5598;48.648;8.908;2022-12-07T10:38:44;2.63;;;1.40;;
11088;SDS011;5598;48.648;8.908;2022-12-07T10:41:12;2.90;;;2.40;;
11088;SDS011;5598;48.648;8.908;2022-12-07T10:43:46;0.00;;;0.00;;
11088;SDS011;5598;48.648;8.908;2022-12-07T10:46:20;6.43;;;3.47;;
11088;SDS011;5598;48.648;8.908;2022-12-07T10:49:08;4.40;;;2.80;;
11088;SDS011;5598;48.648;8.908;2022-12-07T10:51:50;2.50;;;1.80;;
11088;SDS011;5598;48.648;8.908;2022-12-07T10:54:29;2.47;;;1.23;;
11088;SDS011;5598;48.648;8.908;2022-12-07T10:57:11;2.50;;;1.00;;
11088;SDS011;5598;48.648;8.908;2022-12-07T10:59:53;2.83;;;1.77;;
11088;SDS011;5598;48.648;8.908;2022-12-07T11:02:35;1.07;;;1.03;;
11088;SDS011;5598;48.648;8.908;2022-12-07T11:05:27;1.90;;;1.23;;
11088;SDS011;5598;48.648;8.908;2022-12-07T11:08:03;4.57;;;3.10;;
11088;SDS011;5598;48.648;8.908;2022-12-07T11:10:40;2.33;;;1.80;;
11088;SDS011;5598;48.648;8.908;2022-12-07T11:13:14;3.13;;;2.40;;
11088;SDS011;5598;48.648;8.908;2022-12-07T11:16:03;1.60;;;1.10;;
11088;SDS011;5598;48.648;8.908;2022-12-07T11:18:45;6.43;;;3.33;;
11088;SDS011;5598;48.648;8.908;2022-12-07T11:21:19;7.47;;;4.53;;
11088;SDS011;5598;48.648;8.908;2022-12-07T11:23:54;3.80;;;2.20;;
11088;SDS011;5598;48.648;8.908;2022-12-07T11:26:33;4.17;;;2.30;;
11088;SDS011;5598;48.648;8.908;2022-12-07T11:29:16;3.90;;;2.23;;
11088;SDS011;5598;48.648;8.908;2022-12-07T11:31:55;6.03;;;2.70;;
11088;SDS011;5598;48.648;8.908;2022-12-07T11:34:31;6.00;;;3.37;;
11088;SDS011;5598;48.648;8.908;2022-12-07T11:37:05;2.67;;;1.27;;
11088;SDS011;5598;48.648;8.908;2022-12-07T11:39:39;1.93;;;1.80;;
11088;SDS011;5598;48.648;8.908;2022-12-07T11:42:12;0.93;;;0.90;;
11088;SDS011;5598;48.648;8.908;2022-12-07T11:44:46;5.63;;;3.07;;
11088;SDS011;5598;48.648;8.908;2022-12-07T11:47:20;7.13;;;5.27;;
11088;SDS011;5598;48.648;8.908;2022-12-07T11:49:56;3.87;;;2.07;;
11088;SDS011;5598;48.648;8.908;2022-12-07T11:52:30;2.90;;;2.10;;
11088;SDS011;5598;48.648;8.908;2022-12-07T11:55:13;2.07;;;1.30;;
11088;SDS011;5598;48.648;8.908;2022-12-07T11:57:45;5.53;;;3.20;;
11088;SDS011;5598;48.648;8.908;2022-12-07T12:00:18;6.13;;;2.00;;
11088;SDS011;5598;48.648;8.908;2022-12-07T12:02:47;4.50;;;2.90;;
11088;SDS011;5598;48.648;8.908;2022-12-07T12:05:21;2.60;;;1.63;;
11088;SDS011;5598;48.648;8.908;2022-12-07T12:07:50;2.43;;;1.33;;
11088;SDS011;5598;48.648;8.908;2022-12-07T12:10:26;2.40;;;1.23;;
11088;SDS011;5598;48.648;8.908;2022-12-07T12:13:19;3.47;;;2.40;;
11088;SDS011;5598;48.648;8.908;2022-12-07T12:16:01;2.70;;;1.73;;
11088;SDS011;5598;48.648;8.908;2022-12-07T12:18:42;5.80;;;3.77;;
11088;SDS011;5598;48.648;8.908;2022-12-07T12:21:19;8.20;;;4.30;;
11088;SDS011;5598;48.648;8.908;2022-12-07T12:23:54;5.93;;;3.80;;
11088;SDS011;5598;48.648;8.908;2022-12-07T12:26:25;7.00;;;3.27;;
11088;SDS011;5598;48.648;8.908;2022-12-07T12:28:54;7.67;;;4.03;;
11088;SDS011;5598;48.648;8.908;2022-12-07T12:31:32;2.23;;;1.93;;
11088;SDS011;5598;48.648;8.908;2022-12-07T12:34:10;4.27;;;2.47;;
11088;SDS011;5598;48.648;8.908;2022-12-07T12:36:59;1.53;;;0.93;;
11088;SDS011;5598;48.648;8.908;2022-12-07T12:39:26;4.07;;;2.90;;
11088;SDS011;5598;48.648;8.908;2022-12-07T12:41:54;3.67;;;2.30;;
11088;SDS011;5598;48.648;8.908;2022-12-07T12:47:51;2.03;;;1.83;;
11088;SDS011;5598;48.648;8.908;2022-12-07T12:50:27;2.33;;;1.07;;
11088;SDS011;5598;48.648;8.908;2022-12-07T13:01:53;1.40;;;1.23;;
11088;SDS011;5598;48.648;8.908;2022-12-07T13:04:30;2.40;;;1.13;;
11088;SDS011;5598;48.648;8.908;2022-12-07T13:10:29;2.30;;;1.47;;
11088;SDS011;5598;48.648;8.908;2022-12-07T13:13:01;1.80;;;1.43;;
11088;SDS011;5598;48.648;8.908;2022-12-07T13:15:33;1.47;;;0.63;;
11088;SDS011;5598;48.648;8.908;2022-12-07T13:18:03;0.50;;;0.47;;
11088;SDS011;5598;48.648;8.908;2022-12-07T13:20:49;2.33;;;2.03;;
11088;SDS011;5598;48.648;8.908;2022-12-07T13:23:24;1.77;;;0.97;;
11088;SDS011;5598;48.648;8.908;2022-12-07T13:25:58;2.03;;;1.73;;
11088;SDS011;5598;48.648;8.908;2022-12-07T13:28:32;1.67;;;1.10;;
11088;SDS011;5598;48.648;8.908;2022-12-07T13:33:47;1.93;;;1.13;;
11088;SDS011;5598;48.648;8.908;2022-12-07T13:36:17;1.23;;;0.77;;
11088;SDS011;5598;48.648;8.908;2022-12-07T13:38:56;1.47;;;1.37;;
11088;SDS011;5598;48.648;8.908;2022-12-07T13:41:25;2.07;;;1.87;;
11088;SDS011;5598;48.648;8.908;2022-12-07T13:43:55;6.73;;;2.67;;
11088;SDS011;5598;48.648;8.908;2022-12-07T13:46:30;3.00;;;2.50;;
11088;SDS011;5598;48.648;8.908;2022-12-07T13:49:13;0.97;;;0.70;;
11088;SDS011;5598;48.648;8.908;2022-12-07T13:51:44;1.83;;;1.53;;
11088;SDS011;5598;48.648;8.908;2022-12-07T13:54:11;3.63;;;2.60;;
11088;SDS011;5598;48.648;8.908;2022-12-07T13:56:41;2.47;;;2.10;;
11088;SDS011;5598;48.648;8.908;2022-12-07T13:59:16;2.47;;;1.70;;
11088;SDS011;5598;48.648;8.908;2022-12-07T14:01:45;1.70;;;1.40;;
11088;SDS011;5598;48.648;8.908;2022-12-07T14:04:29;0.90;;;0.83;;
11088;SDS011;5598;48.648;8.908;2022-12-07T14:06:58;0.67;;;0.43;;
11088;SDS011;5598;48.648;8.908;2022-12-07T14:09:26;4.40;;;0.33;;
11088;SDS011;5598;48.648;8.908;2022-12-07T14:11:56;3.83;;;1.97;;
11088;SDS011;5598;48.648;8.908;2022-12-07T14:14:25;3.30;;;1.43;;
11088;SDS011;5598;48.648;8.908;2022-12-07T14:16:57;0.40;;;0.30;;
11088;SDS011;5598;48.648;8.908;2022-12-07T14:19:40;0.07;;;0.07;;
11088;SDS011;5598;48.648;8.908;2022-12-07T14:22:16;0.83;;;0.77;;
11088;SDS011;5598;48.648;8.908;2022-12-07T14:24:49;3.00;;;0.87;;
11088;SDS011;5598;48.648;8.908;2022-12-07T14:27:18;3.30;;;2.17;;
11088;SDS011;5598;48.648;8.908;2022-12-07T14:29:48;1.33;;;1.23;;
11088;SDS011;5598;48.648;8.908;2022-12-07T14:32:19;1.83;;;1.10;;
11088;SDS011;5598;48.648;8.908;2022-12-07T14:34:57;3.27;;;2.63;;
11088;SDS011;5598;48.648;8.908;2022-12-07T14:37:29;1.50;;;1.13;;
11088;SDS011;5598;48.648;8.908;2022-12-07T14:39:56;1.50;;;1.13;;
11088;SDS011;5598;48.648;8.908;2022-12-07T14:42:26;7.03;;;4.37;;
11088;SDS011;5598;48.648;8.908;2022-12-07T14:44:54;4.80;;;2.10;;
11088;SDS011;5598;48.648;8.908;2022-12-07T14:47:21;3.97;;;1.67;;
11088;SDS011;5598;48.648;8.908;2022-12-07T14:49:48;3.90;;;3.13;;
11088;SDS011;5598;48.648;8.908;2022-12-07T14:52:16;1.47;;;1.37;;
11088;SDS011;5598;48.648;8.908;2022-12-07T14:54:45;1.93;;;1.33;;
11088;SDS011;5598;48.648;8.908;2022-12-07T14:57:12;1.30;;;1.20;;
11088;SDS011;5598;48.648;8.908;2022-12-07T14:59:40;2.57;;;1.87;;
11088;SDS011;5598;48.648;8.908;2022-12-07T15:02:09;2.67;;;1.63;;
11088;SDS011;5598;48.648;8.908;2022-12-07T15:04:37;0.10;;;0.10;;
11088;SDS011;5598;48.648;8.908;2022-12-07T15:07:04;3.63;;;2.33;;
11088;SDS011;5598;48.648;8.908;2022-12-07T15:09:32;1.17;;;0.70;;
11088;SDS011;5598;48.648;8.908;2022-12-07T15:11:59;3.93;;;2.50;;
11088;SDS011;5598;48.648;8.908;2022-12-07T15:14:26;6.00;;;2.90;;
11088;SDS011;5598;48.648;8.908;2022-12-07T15:16:54;0.87;;;0.57;;
11088;SDS011;5598;48.648;8.908;2022-12-07T15:19:22;0.77;;;0.20;;
11088;SDS011;5598;48.648;8.908;2022-12-07T15:21:51;0.00;;;0.00;;
11088;SDS011;5598;48.648;8.908;2022-12-07T15:24:18;4.80;;;0.60;;
11088;SDS011;5598;48.648;8.908;2022-12-07T15:26:46;4.77;;;2.90;;
11088;SDS011;5598;48.648;8.908;2022-12-07T15:29:13;1.57;;;1.23;;
11088;SDS011;5598;48.648;8.908;2022-12-07T15:31:41;4.50;;;2.13;;
11088;SDS011;5598;48.648;8.908;2022-12-07T15:34:09;4.20;;;0.83;;
11088;SDS011;5598;48.648;8.908;2022-12-07T15:36:36;6.77;;;1.23;;
11088;SDS011;5598;48.648;8.908;2022-12-07T15:39:03;1.00;;;0.70;;
11088;SDS011;5598;48.648;8.908;2022-12-07T15:41:29;0.07;;;0.07;;